Time;durP1;ratioP1;P1;durP2;ratioP2;P2;SDS_P1;SDS_P2;PMS_P1;PMS_P2;Temp;Humidity;BMP_temperature;BMP_pressure;BME280_temperature;BME280_humidity;BME280_pressure;Samples;Min_cycle;Max_cycle;Signal;HPM_P1;HPM_P2
2021/06/29 00:02:09;;;;;;;8.73;5.47;;;;;;;18.29;89.48;96132.28;5032159;28;20048;-75
2021/06/29 00:04:35;;;;;;;6.85;4.47;;;;;;;18.30;89.47;96138.56;5032537;28;20045;-76
2021/06/29 00:07:02;;;;;;;6.32;5.05;;;;;;;18.25;88.97;96134.97;5032459;28;20053;-76
2021/06/29 00:09:28;;;;;;;7.28;4.30;;;;;;;18.21;88.89;96131.38;5032132;28;20564;-77
2021/06/29 00:11:56;;;;;;;10.20;5.07;;;;;;;18.22;88.88;96137.69;5032421;28;20050;-77
2021/06/29 00:14:23;;;;;;;7.78;4.60;;;;;;;18.22;88.80;96137.69;5031920;28;20049;-77
2021/06/29 00:16:49;;;;;;;9.77;4.85;;;;;;;18.28;88.60;96144.47;5032233;28;20405;-76
2021/06/29 00:19:18;;;;;;;8.43;5.00;;;;;;;18.30;88.30;96153.16;5031672;28;20046;-78
2021/06/29 00:21:44;;;;;;;8.82;5.03;;;;;;;18.33;88.30;96144.16;5031333;28;20128;-74
2021/06/29 00:24:11;;;;;;;7.53;4.82;;;;;;;18.31;88.16;96138.19;5031750;28;20049;-77
2021/06/29 00:26:37;;;;;;;7.80;5.07;;;;;;;18.32;88.09;96142.53;5031969;28;20057;-77
2021/06/29 00:29:05;;;;;;;7.85;4.78;;;;;;;18.30;87.84;96141.34;5031555;28;20045;-76
2021/06/29 00:31:32;;;;;;;6.90;4.88;;;;;;;18.34;87.81;96140.22;5032000;28;20045;-76
2021/06/29 00:33:58;;;;;;;8.63;5.50;;;;;;;18.36;87.75;96154.41;5031975;28;20056;-76
2021/06/29 00:36:25;;;;;;;9.23;5.22;;;;;;;18.40;87.68;96158.00;5031438;28;20045;-75
2021/06/29 00:38:51;;;;;;;7.88;4.80;;;;;;;18.44;87.63;96161.63;5012064;28;20062;-75
2021/06/29 00:41:18;;;;;;;8.30;5.10;;;;;;;18.51;87.07;96167.22;5011674;28;20046;-75
2021/06/29 00:43:48;;;;;;;7.50;4.18;;;;;;;18.60;86.34;96168.91;5012190;28;20053;-75
2021/06/29 00:46:15;;;;;;;7.82;3.90;;;;;;;18.65;85.86;96172.13;5011774;28;20382;-75
2021/06/29 00:48:42;;;;;;;6.47;4.60;;;;;;;18.59;85.02;96178.34;5011971;28;20382;-75
2021/06/29 00:51:12;;;;;;;6.18;4.40;;;;;;;18.59;85.46;96181.91;5011374;28;20046;-76
2021/06/29 00:53:38;;;;;;;5.72;4.45;;;;;;;18.58;85.43;96183.06;5012010;28;20061;-75
2021/06/29 00:56:07;;;;;;;6.35;5.20;;;;;;;18.54;85.93;96178.69;5011585;28;20046;-75
2021/06/29 00:58:33;;;;;;;6.70;4.82;;;;;;;18.56;86.34;96187.38;5011874;28;20080;-75
2021/06/29 01:01:00;;;;;;;7.03;4.82;;;;;;;18.55;85.27;96194.84;5011689;28;20046;-75
2021/06/29 01:03:27;;;;;;;6.50;4.90;;;;;;;18.52;85.34;96190.88;5009690;28;20572;-75
2021/06/29 01:05:54;;;;;;;5.32;4.35;;;;;;;18.57;85.55;96191.72;5011727;28;20042;-75
2021/06/29 01:08:21;;;;;;;4.93;4.30;;;;;;;18.61;85.55;96189.81;5011250;28;20077;-75
2021/06/29 01:10:48;;;;;;;7.53;5.15;;;;;;;18.65;85.63;96199.72;5011573;28;20057;-75
2021/06/29 01:13:29;;;;;;;10.27;5.18;;;;;;;18.62;85.32;96194.16;5011048;28;20049;-75
2021/06/29 01:15:56;;;;;;;9.32;5.15;;;;;;;18.63;85.38;96206.75;5011665;28;20049;-75
2021/06/29 01:18:23;;;;;;;10.65;5.20;;;;;;;18.68;85.01;96193.47;5011079;28;20042;-75
2021/06/29 01:20:51;;;;;;;8.38;4.70;;;;;;;18.71;84.78;96197.44;5011544;28;20054;-75
2021/06/29 01:23:20;;;;;;;7.00;4.90;;;;;;;18.72;83.54;96174.22;5011121;28;20441;-75
2021/06/29 01:25:47;;;;;;;9.65;4.75;;;;;;;18.62;83.38;96172.06;5011355;28;20501;-75
2021/06/29 01:28:20;;;;;;;6.53;4.65;;;;;;;18.59;83.94;96178.34;5010952;28;20405;-75
2021/06/29 01:31:02;;;;;;;8.23;4.65;;;;;;;18.54;84.07;96178.69;5011504;28;20050;-75
2021/06/29 01:33:27;;;;;;;6.32;4.50;;;;;;;18.44;83.91;96174.63;5010558;28;20056;-77
2021/06/29 01:35:55;;;;;;;5.85;4.97;;;;;;;18.37;83.58;96168.97;5011412;28;20544;-76
2021/06/29 01:38:23;;;;;;;9.32;5.90;;;;;;;18.33;84.20;96165.41;5026423;28;20050;-75
2021/06/29 01:40:52;;;;;;;8.13;5.90;;;;;;;18.28;84.43;96174.00;5031030;28;20456;-75
2021/06/29 01:43:20;;;;;;;9.23;5.90;;;;;;;18.26;84.72;96168.84;5030486;28;20053;-75
2021/06/29 01:45:50;;;;;;;8.60;5.55;;;;;;;18.29;84.37;96181.88;5030954;28;20124;-75
2021/06/29 01:48:21;;;;;;;9.63;6.00;;;;;;;18.26;84.67;96177.09;5030555;28;20123;-75
2021/06/29 01:50:49;;;;;;;7.93;5.75;;;;;;;18.31;85.07;96179.53;5030727;28;20077;-75
2021/06/29 01:53:17;;;;;;;8.63;6.05;;;;;;;18.30;84.46;96172.44;5030636;28;20046;-75
2021/06/29 01:55:43;;;;;;;11.35;6.47;;;;;;;18.21;84.50;96177.44;5030869;28;20057;-75
2021/06/29 01:58:10;;;;;;;10.02;5.93;;;;;;;18.17;84.83;96179.34;5030495;28;20052;-75
2021/06/29 02:00:36;;;;;;;7.78;5.93;;;;;;;18.12;85.23;96183.22;5030787;28;20132;-75
2021/06/29 02:03:04;;;;;;;8.90;6.35;;;;;;;18.09;85.38;96172.13;5029873;28;20045;-74
2021/06/29 02:05:30;;;;;;;10.18;6.63;;;;;;;18.04;85.39;96167.72;5030629;28;20053;-74
2021/06/29 02:07:57;;;;;;;7.93;6.68;;;;;;;17.96;85.35;96157.78;5030758;28;20054;-74
2021/06/29 02:10:25;;;;;;;10.48;6.72;;;;;;;17.92;85.64;96157.72;5030415;28;20041;-75
2021/06/29 02:12:52;;;;;;;11.55;7.53;;;;;;;17.91;86.02;96144.31;5030529;28;20412;-74
2021/06/29 02:15:20;;;;;;;10.45;6.38;;;;;;;17.85;85.74;96143.81;5030387;28;20050;-74
2021/06/29 02:17:47;;;;;;;10.95;7.68;;;;;;;17.79;86.07;96156.31;5030605;28;20046;-74
2021/06/29 02:20:16;;;;;;;10.52;7.60;;;;;;;17.81;86.35;96158.72;5030132;28;20038;-74
2021/06/29 02:22:44;;;;;;;10.43;7.95;;;;;;;17.80;86.07;96160.69;5030822;28;20129;-74
2021/06/29 02:25:11;;;;;;;12.98;8.40;;;;;;;17.78;86.29;96171.25;5030174;28;20060;-74
2021/06/29 02:27:39;;;;;;;14.85;8.77;;;;;;;17.76;86.53;96168.09;5030582;28;20050;-74
2021/06/29 02:30:07;;;;;;;10.40;8.02;;;;;;;17.74;86.56;96173.16;5030146;28;20049;-74
2021/06/29 02:32:34;;;;;;;13.80;8.95;;;;;;;17.69;87.36;96165.19;5030305;28;20405;-74
2021/06/29 02:35:00;;;;;;;10.70;7.95;;;;;;;17.66;87.36;96163.19;5030496;28;20500;-74
2021/06/29 02:37:27;;;;;;;14.20;8.27;;;;;;;17.64;87.52;96157.22;5029949;28;20058;-74
2021/06/29 02:39:53;;;;;;;13.45;8.88;;;;;;;17.65;87.46;96176.16;5030475;28;20045;-74
2021/06/29 02:42:20;;;;;;;13.48;8.55;;;;;;;17.62;87.29;96170.56;5029959;28;20048;-74
2021/06/29 02:44:49;;;;;;;12.45;8.65;;;;;;;17.65;87.42;96169.84;5031118;28;20051;-75
2021/06/29 02:47:16;;;;;;;10.35;7.80;;;;;;;17.68;87.20;96163.59;5033657;28;20103;-74
2021/06/29 02:49:43;;;;;;;13.13;7.82;;;;;;;17.70;87.02;96161.28;5033991;28;20132;-74
2021/06/29 02:52:10;;;;;;;13.80;8.35;;;;;;;17.73;86.58;96160.56;5033519;28;20049;-74
2021/06/29 02:54:36;;;;;;;11.32;7.88;;;;;;;17.74;86.34;96156.63;5033955;28;20136;-73
2021/06/29 02:57:03;;;;;;;9.95;8.18;;;;;;;17.72;86.19;96158.94;5033375;28;20048;-74
2021/06/29 02:59:29;;;;;;;12.48;7.80;;;;;;;17.73;86.33;96161.34;5033640;28;20045;-74
2021/06/29 03:01:57;;;;;;;15.02;7.88;;;;;;;17.72;85.95;96150.69;5033853;28;20112;-74
2021/06/29 03:04:24;;;;;;;11.43;8.32;;;;;;;17.71;86.23;96146.34;5032848;28;20041;-75
2021/06/29 03:06:51;;;;;;;10.63;8.43;;;;;;;17.76;86.58;96148.03;5033837;28;20053;-74
2021/06/29 03:09:17;;;;;;;12.35;7.10;;;;;;;17.76;86.29;96148.81;5033240;28;20042;-74
2021/06/29 03:11:44;;;;;;;9.45;7.40;;;;;;;17.77;85.77;96153.16;5033479;28;20649;-74
2021/06/29 03:14:10;;;;;;;10.40;6.95;;;;;;;17.77;85.70;96152.38;5033159;28;20049;-74
2021/06/29 03:16:37;;;;;;;10.20;7.63;;;;;;;17.79;85.82;96147.28;5033615;28;20404;-74
2021/06/29 03:19:05;;;;;;;8.63;7.22;;;;;;;17.83;85.44;96131.59;5032881;28;20045;-75
2021/06/29 03:21:31;;;;;;;12.32;7.00;;;;;;;17.86;85.54;96131.66;5033577;28;20045;-74
2021/06/29 03:23:58;;;;;;;11.55;7.25;;;;;;;17.87;85.42;96133.25;5033375;28;20046;-75
2021/06/29 03:26:25;;;;;;;9.30;7.28;;;;;;;17.88;85.03;96137.59;5032669;28;20042;-74
2021/06/29 03:28:51;;;;;;;10.32;7.35;;;;;;;17.93;85.04;96141.97;5033084;28;20052;-74
2021/06/29 03:31:18;;;;;;;7.95;6.47;;;;;;;17.88;84.82;96145.06;5032867;28;20056;-74
2021/06/29 03:33:44;;;;;;;9.80;6.50;;;;;;;17.87;84.90;96148.97;5032742;28;20042;-76
2021/06/29 03:36:13;;;;;;;10.60;7.13;;;;;;;17.87;85.17;96158.03;5032771;28;20042;-75
2021/06/29 03:38:40;;;;;;;13.45;7.63;;;;;;;17.85;85.26;96157.59;5032716;28;20053;-74
2021/06/29 03:41:06;;;;;;;12.10;7.00;;;;;;;17.85;85.07;96141.06;5032533;28;20516;-74
2021/06/29 03:43:34;;;;;;;10.77;7.32;;;;;;;17.89;85.45;96149.41;5032808;28;20049;-74
2021/06/29 03:46:01;;;;;;;9.55;6.68;;;;;;;17.92;85.05;96134.91;5033207;28;20045;-75
2021/06/29 03:48:28;;;;;;;10.77;7.28;;;;;;;17.93;85.05;96136.47;5032555;28;20049;-75
2021/06/29 03:50:54;;;;;;;8.93;7.20;;;;;;;17.93;85.00;96137.28;5032868;28;20630;-74
2021/06/29 03:53:22;;;;;;;9.70;6.55;;;;;;;17.95;84.93;96145.94;5032194;28;20057;-74
2021/06/29 03:55:49;;;;;;;10.15;6.68;;;;;;;17.97;84.93;96148.34;5032725;28;20053;-74
2021/06/29 03:58:15;;;;;;;8.77;6.68;;;;;;;17.96;84.80;96144.00;5032304;28;20053;-74
2021/06/29 04:00:42;;;;;;;8.75;7.38;;;;;;;18.06;84.79;96139.81;5032718;28;20049;-74
2021/06/29 04:03:08;;;;;;;8.15;6.57;;;;;;;18.13;84.39;96146.22;5031603;28;20045;-75
2021/06/29 04:05:35;;;;;;;8.75;6.43;;;;;;;18.19;83.88;96149.44;5032623;28;20048;-75
2021/06/29 04:08:01;;;;;;;9.65;6.50;;;;;;;18.25;84.52;96143.25;5032264;28;20400;-74
2021/06/29 04:10:29;;;;;;;9.95;6.55;;;;;;;18.31;84.25;96140.94;5032332;28;20500;-74
2021/06/29 04:12:57;;;;;;;12.23;6.70;;;;;;;18.38;83.52;96141.06;5032446;28;20042;-74
2021/06/29 04:15:23;;;;;;;7.80;6.20;;;;;;;18.42;83.47;96141.88;5031897;28;20382;-74
2021/06/29 04:17:50;;;;;;;10.25;6.85;;;;;;;18.47;83.35;96143.53;5032258;28;20045;-74
2021/06/29 04:20:17;;;;;;;8.75;6.05;;;;;;;18.46;82.26;96148.25;5031865;28;20523;-75
2021/06/29 04:22:44;;;;;;;8.27;5.85;;;;;;;18.46;82.34;96142.72;5032051;28;20045;-75
2021/06/29 04:25:11;;;;;;;8.32;5.90;;;;;;;18.48;82.17;96140.41;5031643;28;20053;-74
2021/06/29 04:27:39;;;;;;;10.18;5.85;;;;;;;18.50;82.67;96153.81;5032081;28;20049;-74
2021/06/29 04:30:07;;;;;;;10.95;6.47;;;;;;;18.49;82.38;96153.03;5031596;28;20053;-74
2021/06/29 04:32:34;;;;;;;9.80;6.22;;;;;;;18.51;82.23;96149.88;5031630;28;20052;-74
2021/06/29 04:35:00;;;;;;;8.32;6.20;;;;;;;18.55;82.70;96145.22;5032006;28;20048;-74
2021/06/29 04:37:27;;;;;;;15.43;6.65;;;;;;;18.56;82.85;96157.03;5031381;28;20052;-74
2021/06/29 04:39:53;;;;;;;11.63;5.78;;;;;;;18.55;82.61;96149.94;5031917;28;20049;-74
2021/06/29 04:42:20;;;;;;;10.20;6.00;;;;;;;18.51;82.92;96150.69;5031369;28;20046;-74
2021/06/29 04:44:47;;;;;;;7.15;5.85;;;;;;;18.56;82.62;96144.03;5031899;28;20053;-74
2021/06/29 04:47:14;;;;;;;11.35;6.20;;;;;;;18.58;82.34;96160.19;5031418;28;20503;-74
2021/06/29 04:49:40;;;;;;;7.10;5.60;;;;;;;18.54;82.07;96154.66;5031696;28;20053;-74
2021/06/29 04:52:07;;;;;;;7.20;5.13;;;;;;;18.50;82.27;96160.13;5031313;28;20061;-74
2021/06/29 04:54:33;;;;;;;7.18;5.55;;;;;;;18.49;82.04;96160.50;5031599;28;20052;-74
2021/06/29 04:57:00;;;;;;;10.27;5.57;;;;;;;18.45;81.80;96165.97;5031716;28;20042;-74
2021/06/29 04:59:27;;;;;;;9.85;6.65;;;;;;;18.41;81.77;96159.59;5031456;28;20041;-75
2021/06/29 05:01:54;;;;;;;9.32;5.47;;;;;;;18.40;81.82;96158.00;5031404;28;20060;-75
2021/06/29 05:04:21;;;;;;;11.43;5.70;;;;;;;18.40;82.43;96171.81;5030574;28;22293;-74
2021/06/29 05:06:47;;;;;;;8.63;5.75;;;;;;;18.34;82.12;96184.31;5031592;28;20054;-74
2021/06/29 05:09:14;;;;;;;9.10;5.60;;;;;;;18.29;81.87;96181.88;5030503;28;20057;-74
2021/06/29 05:11:40;;;;;;;13.82;5.93;;;;;;;18.26;81.99;96193.63;5031508;28;20045;-74
2021/06/29 05:14:08;;;;;;;10.45;5.70;;;;;;;18.22;82.05;96188.09;5030966;28;20042;-75
2021/06/29 05:16:34;;;;;;;7.22;5.38;;;;;;;18.24;82.04;96196.00;5031515;28;20137;-74
2021/06/29 05:19:02;;;;;;;10.05;5.85;;;;;;;18.23;82.73;96200.72;5031350;28;20045;-74
2021/06/29 05:21:29;;;;;;;6.72;5.50;;;;;;;18.25;83.06;96203.09;5031100;28;20045;-74
2021/06/29 05:23:55;;;;;;;8.00;5.90;;;;;;;18.26;82.48;96204.66;5031061;28;20521;-74
2021/06/29 05:26:22;;;;;;;11.80;6.22;;;;;;;18.29;82.80;96203.94;5030709;28;20076;-74
2021/06/29 05:28:48;;;;;;;9.30;5.28;;;;;;;18.33;82.12;96202.03;5031129;28;20057;-74
2021/06/29 05:31:15;;;;;;;7.97;5.35;;;;;;;18.34;82.38;96195.34;5030780;28;20049;-74
2021/06/29 05:33:42;;;;;;;7.65;5.07;;;;;;;18.36;82.47;96193.00;5030162;28;20544;-74
2021/06/29 05:36:09;;;;;;;16.45;6.20;;;;;;;18.41;82.48;96189.91;5030715;28;20046;-74
2021/06/29 05:38:36;;;;;;;10.52;5.50;;;;;;;18.46;82.14;96191.56;5028968;28;20041;-73
2021/06/29 05:41:03;;;;;;;9.85;5.00;;;;;;;18.50;82.43;96193.22;5030344;28;20060;-74
2021/06/29 05:43:29;;;;;;;6.15;5.18;;;;;;;18.55;81.28;96196.81;5031093;28;20053;-76
2021/06/29 05:45:56;;;;;;;6.70;5.30;;;;;;;18.55;81.29;96199.56;5030899;28;20041;-77
2021/06/29 05:48:23;;;;;;;7.43;5.60;;;;;;;18.63;81.56;96206.75;5030161;28;20052;-76
2021/06/29 05:50:49;;;;;;;10.43;6.03;;;;;;;18.61;80.73;96209.09;5030963;28;20049;-76
2021/06/29 05:53:18;;;;;;;7.10;5.22;;;;;;;18.61;80.72;96214.63;5030433;28;20045;-75
2021/06/29 05:55:44;;;;;;;8.35;5.47;;;;;;;18.63;81.09;96223.31;5030900;28;20413;-77
2021/06/29 05:58:11;;;;;;;6.63;5.20;;;;;;;18.65;80.82;96224.53;5030161;28;20044;-76
2021/06/29 06:00:37;;;;;;;9.07;5.03;;;;;;;18.59;80.73;96219.72;5030663;28;20056;-78
2021/06/29 06:03:04;;;;;;;8.73;5.07;;;;;;;18.57;80.13;96220.06;5029622;28;20069;-79
2021/06/29 06:05:30;;;;;;;7.78;4.75;;;;;;;18.59;80.63;96217.75;5030919;28;20041;-79
2021/06/29 06:07:57;;;;;;;7.10;4.53;;;;;;;18.64;80.39;96231.22;5030722;28;20413;-79
2021/06/29 06:10:25;;;;;;;7.15;4.10;;;;;;;18.63;79.63;96234.34;5030458;28;20053;-79
2021/06/29 06:12:51;;;;;;;11.52;4.60;;;;;;;18.63;79.77;96220.53;5030823;28;20042;-79
2021/06/29 06:15:18;;;;;;;11.63;5.10;;;;;;;18.62;80.07;96221.72;5030264;28;20507;-79
2021/06/29 06:17:44;;;;;;;7.93;4.20;;;;;;;18.63;79.97;96220.53;5030860;28;20046;-80
2021/06/29 06:20:11;;;;;;;10.82;4.55;;;;;;;18.65;80.39;96204.44;5031612;28;20068;-78
2021/06/29 06:22:38;;;;;;;8.05;3.90;;;;;;;18.70;79.87;96206.91;5034329;28;20042;-79
2021/06/29 06:25:07;;;;;;;7.15;4.20;;;;;;;18.73;79.40;96214.41;5034126;28;20107;-80
2021/06/29 06:27:35;;;;;;;8.25;4.05;;;;;;;18.71;79.06;96211.25;5034398;28;20409;-79
2021/06/29 06:30:01;;;;;;;6.22;3.55;;;;;;;18.73;78.45;96228.19;5034007;28;20128;-78
2021/06/29 06:32:28;;;;;;;10.35;4.55;;;;;;;18.72;78.97;96226.63;5033512;28;20496;-79
2021/06/29 06:34:54;;;;;;;6.22;4.13;;;;;;;18.72;78.61;96221.09;5034069;28;20054;-79
2021/06/29 06:37:21;;;;;;;6.72;4.40;;;;;;;18.70;79.22;96210.44;5033577;28;20056;-80
2021/06/29 06:39:47;;;;;;;10.18;5.10;;;;;;;18.73;78.98;96214.41;5033518;28;20042;-74
2021/06/29 06:42:14;;;;;;;4.88;3.55;;;;;;;18.74;77.11;96213.22;5033670;28;20068;-74
2021/06/29 06:44:42;;;;;;;9.80;4.32;;;;;;;18.67;77.61;96208.41;5034142;28;20107;-74
2021/06/29 06:47:08;;;;;;;6.43;3.67;;;;;;;18.66;77.93;96212.34;5033478;28;20045;-74
2021/06/29 06:49:35;;;;;;;7.07;3.92;;;;;;;18.58;77.18;96207.88;5033833;28;20046;-74
2021/06/29 06:52:01;;;;;;;6.57;3.47;;;;;;;18.50;77.71;96209.75;5033303;28;20049;-74
2021/06/29 06:54:28;;;;;;;6.47;3.55;;;;;;;18.44;78.18;96205.72;5030827;28;20046;-74
2021/06/29 06:56:54;;;;;;;6.43;3.80;;;;;;;18.38;78.66;96201.72;5032062;28;20133;-75
2021/06/29 06:59:21;;;;;;;5.82;3.47;;;;;;;18.32;78.74;96214.19;5033076;28;20052;-74
2021/06/29 07:01:49;;;;;;;6.07;3.30;;;;;;;18.28;78.19;96213.38;5033378;28;20420;-75
2021/06/29 07:04:16;;;;;;;5.57;3.10;;;;;;;18.25;77.89;96195.59;5032451;28;20048;-74
2021/06/29 07:06:43;;;;;;;5.65;3.72;;;;;;;18.27;78.24;96173.22;5032905;28;20061;-74
2021/06/29 07:09:10;;;;;;;4.53;3.17;;;;;;;18.32;79.26;96170.09;5033238;28;20053;-74
2021/06/29 07:11:36;;;;;;;6.88;3.85;;;;;;;18.39;78.99;96192.28;5032935;28;20052;-74
2021/06/29 07:14:03;;;;;;;4.72;3.20;;;;;;;18.43;78.99;96170.28;5033043;28;20049;-73
2021/06/29 07:16:29;;;;;;;5.43;3.53;;;;;;;18.44;79.48;96167.13;5032640;28;20045;-74
2021/06/29 07:18:57;;;;;;;4.38;3.67;;;;;;;18.48;80.25;96162.47;5033279;28;20050;-74
2021/06/29 07:21:26;;;;;;;6.35;3.80;;;;;;;18.48;79.56;96151.44;5032574;28;20046;-75
2021/06/29 07:23:53;;;;;;;7.80;3.97;;;;;;;18.50;80.28;96151.06;5033039;28;20053;-75
2021/06/29 07:26:20;;;;;;;6.47;4.20;;;;;;;18.51;80.38;96147.91;5032426;28;20045;-75
2021/06/29 07:28:46;;;;;;;7.95;4.45;;;;;;;18.65;80.48;96149.28;5032691;28;20045;-75
2021/06/29 07:31:13;;;;;;;6.45;3.90;;;;;;;18.69;79.29;96144.63;5032183;28;20535;-74
2021/06/29 07:33:40;;;;;;;6.03;3.80;;;;;;;18.75;79.02;96149.44;5032692;28;20053;-74
2021/06/29 07:36:09;;;;;;;4.65;3.55;;;;;;;18.80;79.45;96151.06;5032480;28;20052;-76
2021/06/29 07:38:36;;;;;;;7.65;3.90;;;;;;;18.83;79.34;96147.53;5032551;28;20042;-74
2021/06/29 07:41:02;;;;;;;4.63;3.53;;;;;;;18.92;79.53;96152.78;5032357;28;20046;-74
2021/06/29 07:43:29;;;;;;;5.43;4.03;;;;;;;19.03;78.14;96137.91;5032507;28;20400;-74
2021/06/29 07:45:55;;;;;;;4.95;3.47;;;;;;;19.15;77.56;96123.06;5032484;28;20053;-75
2021/06/29 07:48:22;;;;;;;5.00;3.40;;;;;;;19.27;77.18;96120.03;5031770;28;20562;-75
2021/06/29 07:50:48;;;;;;;6.22;3.63;;;;;;;19.36;78.42;96118.91;5032572;28;20404;-74
2021/06/29 07:53:16;;;;;;;6.32;3.38;;;;;;;19.49;76.68;96109.97;5031843;28;20045;-75
2021/06/29 07:55:42;;;;;;;5.22;3.50;;;;;;;19.64;75.93;96105.41;5032689;28;20052;-75
2021/06/29 07:58:09;;;;;;;8.80;3.47;;;;;;;19.76;76.66;96104.28;5031572;28;20046;-77
2021/06/29 08:00:36;;;;;;;5.60;3.20;;;;;;;19.80;75.27;96096.81;5032403;28;20053;-76
2021/06/29 08:03:03;;;;;;;5.40;3.22;;;;;;;19.93;75.94;96097.28;5031226;28;20046;-76
2021/06/29 08:05:30;;;;;;;5.20;3.47;;;;;;;20.10;78.30;96088.34;5032305;28;20382;-76
2021/06/29 08:07:56;;;;;;;3.70;2.97;;;;;;;20.18;74.02;96076.13;5031636;28;20142;-76
2021/06/29 08:10:24;;;;;;;5.20;2.97;;;;;;;20.26;73.94;96075.00;5032199;28;20060;-75
2021/06/29 08:12:51;;;;;;;5.80;3.50;;;;;;;20.40;74.09;96065.97;5031944;28;20056;-76
2021/06/29 08:15:18;;;;;;;4.35;2.90;;;;;;;20.54;73.94;96068.81;5031834;28;20125;-74
2021/06/29 08:17:46;;;;;;;5.75;3.28;;;;;;;20.92;70.69;96066.53;5032076;28;20076;-76
2021/06/29 08:20:14;;;;;;;4.80;2.60;;;;;;;22.08;68.11;96055.06;5031693;28;20091;-75
2021/06/29 08:22:41;;;;;;;2.63;2.00;;;;;;;23.46;61.33;96049.25;5031630;28;20405;-75
2021/06/29 08:25:09;;;;;;;3.60;2.00;;;;;;;24.53;58.08;96054.56;5031695;28;20045;-76
2021/06/29 08:27:37;;;;;;;3.38;1.90;;;;;;;25.26;55.81;96047.63;5031513;28;20045;-74
2021/06/29 08:30:05;;;;;;;3.10;2.00;;;;;;;26.06;54.86;96043.16;5031694;28;20045;-76
2021/06/29 08:32:32;;;;;;;2.47;1.65;;;;;;;26.21;52.08;96026.91;5030966;28;20520;-75
2021/06/29 08:34:58;;;;;;;2.55;1.60;;;;;;;26.60;53.73;96026.16;5031906;28;20512;-75
2021/06/29 08:37:25;;;;;;;2.92;1.80;;;;;;;27.17;48.71;96016.53;5029858;28;20053;-75
2021/06/29 08:39:52;;;;;;;1.75;1.50;;;;;;;27.65;48.16;96005.78;5031691;28;20053;-76
2021/06/29 08:42:19;;;;;;;2.55;1.45;;;;;;;28.13;46.64;96002.13;5030433;28;20460;-75
2021/06/29 08:44:47;;;;;;;2.65;1.27;;;;;;;28.53;44.14;95999.81;5031832;28;20052;-76
2021/06/29 08:47:13;;;;;;;3.28;1.75;;;;;;;28.77;43.49;96005.94;5030671;28;20061;-77
2021/06/29 08:49:40;;;;;;;3.40;1.42;;;;;;;28.80;42.45;95998.63;5031460;28;20488;-76
2021/06/29 08:52:08;;;;;;;2.50;1.40;;;;;;;28.80;42.63;96002.22;5030649;28;20061;-78
2021/06/29 08:54:35;;;;;;;2.15;1.77;;;;;;;28.62;42.79;96009.59;5031683;28;20043;-77
2021/06/29 08:57:03;;;;;;;2.45;1.40;;;;;;;28.59;44.97;96005.66;5030521;28;20049;-77
2021/06/29 08:59:29;;;;;;;3.22;2.03;;;;;;;28.52;42.11;95998.25;5031365;28;20103;-76
2021/06/29 09:02:00;;;;;;;3.13;1.95;;;;;;;28.04;41.26;96005.59;5030832;28;20045;-76
2021/06/29 09:04:44;;;;;;;1.92;1.38;;;;;;;27.63;43.30;95991.47;5029441;28;20404;-74
2021/06/29 09:07:22;;;;;;;2.03;1.45;;;;;;;27.01;44.01;95991.34;5030616;28;20049;-74
2021/06/29 09:09:55;;;;;;;4.80;1.98;;;;;;;26.49;48.51;95983.72;5031055;28;20049;-75
2021/06/29 09:12:55;;;;;;;3.67;2.10;;;;;;;26.24;50.20;95979.38;5030338;28;20044;-75
2021/06/29 09:15:41;;;;;;;2.67;1.88;;;;;;;26.14;47.88;95968.44;4949017;28;20146;-77
2021/06/29 09:18:16;;;;;;;4.07;2.10;;;;;;;26.01;50.58;95965.53;4949272;28;20055;-75
2021/06/29 09:20:44;;;;;;;2.75;1.98;;;;;;;26.09;52.90;95960.56;5000379;28;20071;-74
2021/06/29 09:23:13;;;;;;;3.85;2.67;;;;;;;26.15;51.23;95959.63;5030175;28;20048;-76
2021/06/29 09:25:42;;;;;;;3.38;1.88;;;;;;;26.02;46.24;95941.97;5029667;28;20049;-74
2021/06/29 09:28:13;;;;;;;5.60;1.77;;;;;;;25.75;46.19;95947.69;5028185;28;20050;-74
2021/06/29 09:30:42;;;;;;;3.13;1.92;;;;;;;25.67;50.94;95941.41;5012455;28;20045;-75
2021/06/29 09:33:12;;;;;;;2.28;1.73;;;;;;;25.66;49.35;95945.41;5021199;28;20566;-74
2021/06/29 09:35:41;;;;;;;2.95;1.90;;;;;;;25.69;50.03;95950.16;5030557;28;20062;-75
2021/06/29 09:38:09;;;;;;;3.13;1.83;;;;;;;25.68;47.38;95954.13;5029822;28;20049;-74
2021/06/29 09:40:37;;;;;;;3.15;2.00;;;;;;;25.48;48.21;95948.53;5030549;28;20069;-76
2021/06/29 09:43:12;;;;;;;4.25;2.00;;;;;;;25.47;49.07;95944.16;5030159;28;20049;-75
2021/06/29 09:45:42;;;;;;;4.68;1.83;;;;;;;25.58;47.14;95932.03;5030226;28;20076;-75
2021/06/29 09:48:10;;;;;;;3.40;2.13;;;;;;;25.74;50.02;95924.59;5029814;28;20405;-76
2021/06/29 09:50:40;;;;;;;2.60;1.45;;;;;;;25.96;48.25;95924.16;5030393;28;20496;-77
2021/06/29 09:53:23;;;;;;;3.50;1.95;;;;;;;25.93;48.82;95913.84;5030077;28;20140;-76
2021/06/29 09:55:51;;;;;;;;;;;;;;;25.71;46.65;95914.25;5033579;28;20042;-76
2021/06/29 09:58:19;;;;;;;3.47;2.08;;;;;;;25.45;48.05;95906.78;5033347;28;19925;-78
2021/06/29 10:00:49;;;;;;;2.60;1.60;;;;;;;25.29;48.02;95904.69;5034912;28;20063;-79
2021/06/29 10:03:27;;;;;;;2.65;1.83;;;;;;;25.25;51.84;95888.00;5033554;28;20041;-79
2021/06/29 10:05:57;;;;;;;2.28;1.67;;;;;;;25.35;49.78;95880.66;5034625;28;20053;-76
2021/06/29 10:08:26;;;;;;;7.70;1.90;;;;;;;25.32;50.79;95875.16;5033760;28;20049;-78
2021/06/29 10:11:11;;;;;;;4.05;2.20;;;;;;;25.41;53.42;95878.19;5034410;28;20049;-77
2021/06/29 10:13:41;;;;;;;6.38;1.90;;;;;;;25.56;50.79;95873.91;5034095;28;20041;-78
2021/06/29 10:16:09;;;;;;;3.55;2.17;;;;;;;25.38;51.29;95873.47;5034046;28;20128;-76
2021/06/29 10:18:38;;;;;;;3.28;1.92;;;;;;;25.32;53.08;95864.81;5033957;28;20046;-79
2021/06/29 10:21:19;;;;;;;3.03;1.70;;;;;;;25.43;51.51;95864.63;5034088;28;20053;-78
2021/06/29 10:23:46;;;;;;;5.43;1.95;;;;;;;25.56;50.53;95868.34;5034215;28;20046;-78
2021/06/29 10:26:13;;;;;;;3.53;1.75;;;;;;;25.70;47.29;95856.91;5033792;28;20049;-79
2021/06/29 10:28:41;;;;;;;3.25;2.10;;;;;;;25.53;49.61;95852.47;5033519;28;20080;-76
2021/06/29 10:31:09;;;;;;;7.88;3.83;;;;;;;25.63;53.89;95856.25;5031053;28;20111;-76
2021/06/29 10:33:37;;;;;;;3.85;2.30;;;;;;;25.78;53.03;95840.84;5032773;28;20077;-76
2021/06/29 10:36:04;;;;;;;5.40;2.67;;;;;;;25.92;49.69;95840.53;5032035;28;20045;-78
2021/06/29 10:38:33;;;;;;;4.38;2.00;;;;;;;26.06;52.61;95838.69;5033025;28;20048;-78
2021/06/29 10:41:00;;;;;;;3.97;2.42;;;;;;;26.10;49.32;95834.59;5033024;28;20053;-76
2021/06/29 10:43:27;;;;;;;3.10;1.92;;;;;;;26.19;48.68;95826.41;5032816;28;20583;-80
2021/06/29 10:45:53;;;;;;;2.65;2.03;;;;;;;26.23;52.29;95809.59;5033831;28;20451;-79
2021/06/29 10:48:22;;;;;;;3.35;1.92;;;;;;;26.35;48.29;95813.69;5033555;28;20100;-77
2021/06/29 10:50:50;;;;;;;3.85;2.22;;;;;;;26.43;50.77;95806.75;5034069;28;20061;-76
2021/06/29 10:53:37;;;;;;;3.17;1.92;;;;;;;26.44;48.50;95805.53;5033655;28;20128;-79
2021/06/29 10:56:06;;;;;;;2.67;2.00;;;;;;;26.47;51.57;95810.25;5033388;28;20049;-77
2021/06/29 10:58:39;;;;;;;3.47;2.10;;;;;;;26.55;47.90;95797.69;5033788;28;20049;-79
2021/06/29 11:01:34;;;;;;;2.67;2.08;;;;;;;26.64;50.52;95789.50;5033194;28;20052;-77
2021/06/29 11:04:03;;;;;;;2.80;1.77;;;;;;;26.73;49.54;95794.47;4987324;28;20053;-76
2021/06/29 11:06:43;;;;;;;3.72;1.95;;;;;;;26.73;48.93;95798.03;5032624;28;20060;-77
2021/06/29 11:09:17;;;;;;;2.45;1.70;;;;;;;26.64;46.30;95789.50;5033330;28;20180;-79
2021/06/29 11:12:20;;;;;;;3.17;2.10;;;;;;;26.61;49.17;95784.75;5033658;28;20136;-78
2021/06/29 11:14:47;;;;;;;5.43;2.00;;;;;;;26.60;47.48;95768.47;5033360;28;20041;-79
2021/06/29 11:17:15;;;;;;;3.65;1.58;;;;;;;26.60;47.02;95760.88;5032958;28;20046;-78
2021/06/29 11:20:07;;;;;;;3.17;1.60;;;;;;;26.69;48.86;95752.66;5033399;28;20052;-78
2021/06/29 11:22:48;;;;;;;3.00;1.98;;;;;;;26.73;46.59;95752.56;5033468;28;20042;-78
2021/06/29 11:25:31;;;;;;;3.33;1.80;;;;;;;26.71;47.01;95733.44;5032659;28;20046;-77
2021/06/29 11:28:02;;;;;;;4.07;1.75;;;;;;;26.71;53.30;95741.81;5033116;28;20048;-76
2021/06/29 11:30:57;;;;;;;5.28;1.80;;;;;;;26.69;47.89;95727.53;5032801;28;20041;-74
2021/06/29 11:33:38;;;;;;;3.67;2.30;;;;;;;26.73;49.57;95725.44;5031524;28;20040;-77
2021/06/29 11:36:07;;;;;;;3.92;2.03;;;;;;;26.74;50.13;95715.81;5032683;28;20131;-76
2021/06/29 11:38:35;;;;;;;2.63;1.70;;;;;;;26.73;49.56;95714.25;5033201;28;20045;-77